Time;durP1;ratioP1;P1;durP2;ratioP2;P2;SDS_P1;SDS_P2;PMS_P1;PMS_P2;Temp;Humidity;BMP_temperature;BMP_pressure;BME280_temperature;BME280_humidity;BME280_pressure;Samples;Min_cycle;Max_cycle;Signal;HPM_P1;HPM_P2
2021/06/21 00:01:50;;;;;;;15.18;8.68;;;;;;;18.44;69.97;100425.94;4860604;29;20610;-78
2021/06/21 00:04:16;;;;;;;16.33;8.65;;;;;;;18.39;70.01;100423.44;4844991;29;20045;-80
2021/06/21 00:06:42;;;;;;;14.10;9.32;;;;;;;18.44;70.13;100442.59;4860104;29;20045;-78
2021/06/21 00:09:08;;;;;;;13.30;8.15;;;;;;;18.35;70.33;100435.88;4861366;29;20041;-79
2021/06/21 00:11:34;;;;;;;11.13;7.53;;;;;;;18.33;70.44;100436.78;4860546;29;20076;-78
2021/06/21 00:14:00;;;;;;;11.93;8.85;;;;;;;18.39;70.33;100454.22;4860409;29;20050;-77
2021/06/21 00:16:27;;;;;;;12.30;8.15;;;;;;;18.30;70.49;100450.09;4859588;29;20158;-78
2021/06/21 00:18:52;;;;;;;11.27;9.18;;;;;;;18.28;70.38;100454.53;4844423;29;20470;-76
2021/06/21 00:21:19;;;;;;;20.02;9.75;;;;;;;18.19;70.49;100447.78;4859538;29;20045;-82
2021/06/21 00:23:46;;;;;;;12.50;8.68;;;;;;;18.16;70.83;100455.78;4844743;29;20112;-79
2021/06/21 00:26:13;;;;;;;10.63;8.95;;;;;;;18.02;71.06;100432.47;4863447;29;20517;-79
2021/06/21 00:28:39;;;;;;;12.90;8.93;;;;;;;18.06;71.08;100458.66;4849193;29;20101;-82
2021/06/21 00:31:05;;;;;;;22.48;9.40;;;;;;;17.94;71.26;100447.59;4845458;29;20041;-80
2021/06/21 00:33:33;;;;;;;11.48;9.77;;;;;;;17.85;71.65;100433.81;4861931;29;20510;-80
2021/06/21 00:36:04;;;;;;;13.82;9.88;;;;;;;17.95;71.60;100459.84;4860882;29;20121;-82
2021/06/21 00:38:31;;;;;;;9.60;8.60;;;;;;;17.75;72.08;100441.13;4861053;29;20041;-79
2021/06/21 00:40:57;;;;;;;10.32;9.20;;;;;;;17.90;72.34;100444.19;4861015;29;20076;-79
2021/06/21 00:43:23;;;;;;;12.30;9.32;;;;;;;17.74;72.34;100447.28;4844560;29;20052;-81
2021/06/21 00:45:49;;;;;;;14.32;9.15;;;;;;;17.83;72.45;100461.94;4844354;29;20045;-81
2021/06/21 00:48:15;;;;;;;13.77;9.05;;;;;;;17.75;72.55;100449.00;4844742;29;20073;-79
2021/06/21 00:50:41;;;;;;;12.45;9.65;;;;;;;17.43;72.88;100394.66;4845645;29;20110;-80
2021/06/21 00:53:07;;;;;;;12.45;9.63;;;;;;;17.85;72.76;100469.78;4861286;29;20105;-78
2021/06/21 00:55:33;;;;;;;12.02;9.13;;;;;;;17.84;72.78;100466.31;4878161;29;20104;-79
2021/06/21 00:57:59;;;;;;;13.35;10.40;;;;;;;17.71;72.84;100433.34;4866373;29;20049;-78
2021/06/21 01:00:27;;;;;;;14.48;10.90;;;;;;;17.79;73.17;100446.25;4866620;29;20124;-82
2021/06/21 01:03:07;;;;;;;14.65;11.48;;;;;;;17.84;73.21;100453.16;4865749;29;20041;-83
2021/06/21 01:05:37;;;;;;;12.65;11.15;;;;;;;17.72;73.18;100433.31;4850484;29;20053;-81
2021/06/21 01:08:09;;;;;;;15.32;11.93;;;;;;;17.86;73.55;100455.72;4855038;29;20105;-78
2021/06/21 01:10:39;;;;;;;16.85;12.60;;;;;;;17.86;73.69;100458.34;4871795;29;20068;-83
2021/06/21 01:13:27;;;;;;;15.63;11.75;;;;;;;17.69;73.82;100428.13;4870243;29;20066;-80
2021/06/21 01:16:06;;;;;;;16.90;11.25;;;;;;;17.89;73.71;100458.28;4850478;29;20108;-81
2021/06/21 01:18:34;;;;;;;17.13;10.65;;;;;;;17.82;73.67;100443.56;4863109;29;20248;-78
2021/06/21 01:21:37;;;;;;;14.43;12.10;;;;;;;17.94;73.88;100452.88;4848909;29;20049;-78
2021/06/21 01:24:10;;;;;;;15.95;12.10;;;;;;;17.98;73.90;100457.13;4830967;29;20049;-79
2021/06/21 01:27:17;;;;;;;17.17;11.63;;;;;;;18.01;74.13;100457.09;4854163;29;20053;-80
2021/06/21 01:29:53;;;;;;;19.08;11.23;;;;;;;18.00;73.88;100447.47;4823491;29;20140;-78
2021/06/21 01:32:38;;;;;;;16.65;12.65;;;;;;;18.08;73.94;100448.09;4855474;29;20041;-82
2021/06/21 01:35:07;;;;;;;13.18;11.68;;;;;;;17.92;73.84;100424.81;4867236;29;20076;-81
2021/06/21 01:37:34;;;;;;;17.90;10.98;;;;;;;18.13;73.98;100450.59;4864138;29;20137;-83
2021/06/21 01:40:02;;;;;;;11.93;9.68;;;;;;;17.96;74.01;100425.59;4860340;29;20061;-80
2021/06/21 01:42:30;;;;;;;17.13;9.77;;;;;;;18.11;73.71;100439.25;4861106;29;20045;-79
2021/06/21 01:45:08;;;;;;;12.57;9.40;;;;;;;18.17;73.67;100447.81;4844262;29;20030;-79
2021/06/21 01:47:35;;;;;;;15.68;10.60;;;;;;;17.88;73.47;100390.75;4863860;29;20053;-81
2021/06/21 01:50:01;;;;;;;14.65;10.27;;;;;;;18.31;73.39;100463.19;4851006;29;20577;-79
2021/06/21 01:52:35;;;;;;;11.93;9.73;;;;;;;18.32;73.47;100464.94;4860071;29;20094;-81
2021/06/21 01:55:03;;;;;;;13.52;9.85;;;;;;;18.31;73.46;100452.66;4843685;29;20049;-82
2021/06/21 01:57:31;;;;;;;15.23;10.00;;;;;;;18.31;73.24;100442.13;4859111;29;20087;-80
2021/06/21 02:00:00;;;;;;;14.95;10.38;;;;;;;18.51;73.08;100464.34;4860113;29;20044;-82
2021/06/21 02:02:31;;;;;;;12.90;10.63;;;;;;;18.57;73.41;100469.44;4863367;29;20065;-81
2021/06/21 02:04:58;;;;;;;15.35;10.32;;;;;;;18.63;73.13;100469.25;4830976;29;20668;-79
2021/06/21 02:07:25;;;;;;;13.52;9.95;;;;;;;18.51;72.90;100435.38;4863095;29;20072;-82
2021/06/21 02:09:53;;;;;;;17.90;9.68;;;;;;;18.82;72.85;100473.94;4847341;29;20100;-79
2021/06/21 02:12:21;;;;;;;17.67;10.68;;;;;;;18.87;72.56;100465.84;4866409;29;20050;-80
2021/06/21 02:14:50;;;;;;;14.02;10.40;;;;;;;18.86;72.69;100448.31;4864816;29;20057;-81
2021/06/21 02:17:25;;;;;;;13.63;10.35;;;;;;;18.97;72.06;100464.69;4848860;29;20052;-81
2021/06/21 02:19:53;;;;;;;13.65;10.73;;;;;;;19.15;72.09;100467.63;4864028;29;20540;-83
2021/06/21 02:22:24;;;;;;;15.13;10.93;;;;;;;19.16;72.34;100454.38;4862023;29;20053;-83
2021/06/21 02:24:52;;;;;;;15.18;10.48;;;;;;;19.00;72.06;100410.97;4847406;29;20129;-81
2021/06/21 02:27:19;;;;;;;15.23;10.35;;;;;;;19.23;71.68;100421.59;4864078;29;20049;-86
2021/06/21 02:29:49;;;;;;;12.00;10.30;;;;;;;19.62;71.42;100465.09;4863739;29;20108;-83
2021/06/21 02:32:16;;;;;;;15.50;10.02;;;;;;;19.75;70.96;100469.91;4846820;29;20690;-83
2021/06/21 02:34:42;;;;;;;15.32;10.98;;;;;;;19.85;70.83;100466.88;4846616;29;20121;-82
2021/06/21 02:37:09;;;;;;;14.55;10.15;;;;;;;19.81;70.40;100438.88;4845439;29;20049;-83
2021/06/21 02:39:35;;;;;;;12.30;9.50;;;;;;;19.98;70.28;100454.13;4846374;29;20038;-80
2021/06/21 02:42:02;;;;;;;11.50;10.02;;;;;;;20.09;70.04;100455.47;4846330;29;20049;-79
2021/06/21 02:44:29;;;;;;;13.82;9.70;;;;;;;20.13;70.06;100444.75;4862420;29;20038;-83
2021/06/21 02:46:56;;;;;;;14.00;11.32;;;;;;;20.17;69.37;100437.56;4846139;29;20576;-80
2021/06/21 02:49:22;;;;;;;18.33;11.63;;;;;;;20.06;69.42;100401.00;4869824;29;20064;-81
2021/06/21 02:52:16;;;;;;;13.60;10.82;;;;;;;20.21;68.95;100409.22;4867116;29;20101;-81
2021/06/21 02:55:29;;;;;;;15.23;10.90;;;;;;;20.58;68.63;100436.84;4846938;29;20057;-80
2021/06/21 02:57:55;;;;;;;13.18;10.48;;;;;;;20.85;68.62;100453.38;4844848;29;20054;-81
2021/06/21 03:00:22;;;;;;;17.20;11.40;;;;;;;20.84;68.13;100432.31;4836660;29;20068;-83
2021/06/21 03:02:49;;;;;;;15.40;11.80;;;;;;;21.09;68.37;100450.63;4834084;29;20495;-79
2021/06/21 03:05:17;;;;;;;18.88;13.15;;;;;;;21.22;67.62;100456.28;4830532;29;20041;-82
2021/06/21 03:07:46;;;;;;;17.77;12.63;;;;;;;21.20;67.84;100439.59;4863076;29;20065;-79
2021/06/21 03:10:13;;;;;;;19.05;13.82;;;;;;;21.35;67.55;100449.50;4832758;29;20050;-77
2021/06/21 03:12:43;;;;;;;19.52;14.48;;;;;;;21.27;67.44;100401.38;4848152;29;20462;-80
2021/06/21 03:15:09;;;;;;;18.55;13.48;;;;;;;21.49;67.28;100421.59;4827444;29;20045;-80
2021/06/21 03:17:36;;;;;;;16.70;13.38;;;;;;;21.85;67.38;100455.28;4822509;29;20132;-81
2021/06/21 03:20:03;;;;;;;15.85;13.93;;;;;;;21.97;67.19;100464.47;4845572;29;20041;-82
2021/06/21 03:22:30;;;;;;;14.60;12.90;;;;;;;22.14;67.00;100469.00;4831559;29;20514;-79
2021/06/21 03:24:56;;;;;;;16.08;12.20;;;;;;;22.25;66.74;100474.63;4845585;29;20476;-79
2021/06/21 03:27:31;;;;;;;17.70;12.20;;;;;;;22.39;66.84;100470.50;4801500;29;20080;-79
2021/06/21 03:29:58;;;;;;;16.45;12.57;;;;;;;22.45;66.69;100459.59;4847208;29;20053;-81
2021/06/21 03:32:26;;;;;;;13.25;11.88;;;;;;;22.67;66.18;100469.16;4837467;29;20101;-79
2021/06/21 03:34:55;;;;;;;13.95;11.60;;;;;;;22.77;65.50;100469.56;4871089;29;20037;-81
2021/06/21 03:37:21;;;;;;;14.48;11.98;;;;;;;22.61;65.42;100427.06;4871687;29;20049;-83
2021/06/21 03:39:47;;;;;;;15.52;11.07;;;;;;;22.82;64.59;100447.22;4867868;29;20135;-81
2021/06/21 03:42:13;;;;;;;16.98;12.80;;;;;;;23.10;63.87;100474.13;4847226;29;20049;-84
2021/06/21 03:44:39;;;;;;;20.45;14.05;;;;;;;23.24;63.28;100471.66;4861804;29;20493;-81
2021/06/21 03:47:07;;;;;;;17.60;14.02;;;;;;;23.15;62.73;100441.13;4862177;29;20049;-79
2021/06/21 03:49:32;;;;;;;19.30;14.95;;;;;;;23.29;62.59;100435.13;4862044;29;20049;-81
2021/06/21 03:51:58;;;;;;;22.83;14.52;;;;;;;23.54;62.08;100451.56;4859910;29;20117;-81
2021/06/21 03:54:24;;;;;;;20.65;15.25;;;;;;;23.64;61.62;100441.28;4829478;29;20059;-80
2021/06/21 03:56:50;;;;;;;16.42;14.10;;;;;;;23.83;61.23;100451.81;4845006;29;20039;-82
2021/06/21 03:59:19;;;;;;;19.02;15.63;;;;;;;24.12;60.77;100475.97;4863189;29;20068;-82
2021/06/21 04:01:45;;;;;;;19.40;14.45;;;;;;;24.15;60.27;100447.41;4862606;29;20429;-78
2021/06/21 04:04:11;;;;;;;20.13;15.77;;;;;;;24.40;59.94;100463.78;4849701;29;20045;-79
2021/06/21 04:06:37;;;;;;;19.30;14.80;;;;;;;24.51;59.61;100467.53;4846852;29;20056;-82
2021/06/21 04:09:04;;;;;;;20.13;16.00;;;;;;;24.77;58.95;100480.34;4845769;29;20577;-81
2021/06/21 04:11:30;;;;;;;19.38;15.55;;;;;;;24.94;58.83;100480.22;4848019;29;20069;-80
2021/06/21 04:13:58;;;;;;;17.58;13.75;;;;;;;25.14;58.11;100483.50;4850343;29;20101;-81
2021/06/21 04:16:26;;;;;;;20.48;14.95;;;;;;;25.05;57.71;100436.13;4849940;29;20041;-77
2021/06/21 04:19:05;;;;;;;21.52;14.77;;;;;;;24.96;57.01;100398.47;4862914;29;20073;-80
2021/06/21 04:21:35;;;;;;;17.60;14.43;;;;;;;25.56;56.62;100465.06;4834225;29;20037;-82
2021/06/21 04:24:01;;;;;;;19.10;14.82;;;;;;;25.92;56.26;100479.72;4853249;29;20045;-80
2021/06/21 04:26:27;;;;;;;18.95;15.30;;;;;;;25.83;56.22;100443.84;4868614;29;20130;-80
2021/06/21 04:28:52;;;;;;;18.80;14.05;;;;;;;26.22;55.60;100481.44;4871418;29;20061;-79
2021/06/21 04:31:20;;;;;;;17.02;13.45;;;;;;;26.30;54.81;100457.78;4869466;29;20094;-85
2021/06/21 04:33:46;;;;;;;17.25;13.05;;;;;;;26.56;54.13;100471.22;4854503;29;20117;-82
2021/06/21 04:36:13;;;;;;;20.25;15.88;;;;;;;26.62;53.34;100451.28;4869306;29;20053;-84
2021/06/21 04:38:39;;;;;;;18.48;15.07;;;;;;;26.56;53.27;100411.69;4847970;29;20049;-83
2021/06/21 04:41:06;;;;;;;19.70;14.20;;;;;;;27.18;52.49;100476.97;4831567;29;20093;-83
2021/06/21 04:43:34;;;;;;;15.63;12.13;;;;;;;27.25;51.85;100477.41;4863486;29;20072;-86
2021/06/21 04:46:03;;;;;;;15.98;11.70;;;;;;;27.33;51.13;100470.59;4863917;29;20175;-79
2021/06/21 04:48:34;;;;;;;17.17;12.23;;;;;;;27.41;50.40;100451.34;4865489;29;20049;-78
2021/06/21 04:51:00;;;;;;;17.40;12.43;;;;;;;27.44;49.75;100420.91;4851151;29;20041;-82
2021/06/21 04:53:27;;;;;;;20.55;12.52;;;;;;;27.94;49.49;100472.59;4869344;29;20042;-79
2021/06/21 04:55:53;;;;;;;14.27;12.77;;;;;;;28.05;48.83;100471.00;4869077;29;20053;-82
2021/06/21 04:58:19;;;;;;;12.73;11.20;;;;;;;28.08;48.68;100434.16;4862899;29;20045;-82
2021/06/21 05:00:45;;;;;;;14.32;10.48;;;;;;;28.41;48.18;100461.25;4846805;29;20104;-83
2021/06/21 05:03:11;;;;;;;13.32;9.13;;;;;;;28.68;46.96;100474.44;4863552;29;20049;-78
2021/06/21 05:05:37;;;;;;;10.52;6.50;;;;;;;28.65;46.25;100437.19;4862084;29;20051;-81
2021/06/21 05:08:04;;;;;;;6.60;3.72;;;;;;;29.01;45.65;100466.69;4863943;29;20069;-80
2021/06/21 05:10:30;;;;;;;6.72;4.78;;;;;;;29.30;44.19;100477.84;4829718;29;20046;-80
2021/06/21 05:12:56;;;;;;;9.32;4.40;;;;;;;29.28;42.69;100444.94;4813525;29;20069;-82
2021/06/21 05:15:22;;;;;;;4.63;3.20;;;;;;;29.58;41.86;100456.09;4826517;29;20045;-79
2021/06/21 05:17:48;;;;;;;6.43;3.30;;;;;;;29.80;40.83;100440.97;4837924;29;20037;-82
2021/06/21 05:20:14;;;;;;;9.80;4.50;;;;;;;30.28;39.67;100469.31;4844088;29;20171;-82
2021/06/21 05:22:40;;;;;;;5.97;3.80;;;;;;;30.39;38.99;100468.44;4861704;29;20051;-81
2021/06/21 05:25:07;;;;;;;6.43;4.60;;;;;;;30.36;38.54;100454.28;4844435;29;20102;-84
2021/06/21 05:27:33;;;;;;;4.63;3.53;;;;;;;30.24;38.09;100444.59;4844790;29;20045;-79
2021/06/21 05:30:00;;;;;;;6.43;3.80;;;;;;;30.33;38.34;100435.78;4861767;29;20053;-80
2021/06/21 05:32:27;;;;;;;5.50;3.70;;;;;;;30.67;38.40;100442.03;4866077;29;20070;-79
2021/06/21 05:34:53;;;;;;;6.60;3.40;;;;;;;30.96;37.42;100447.63;4873203;29;20094;-82
2021/06/21 05:37:19;;;;;;;5.30;2.65;;;;;;;31.21;37.11;100459.84;4880207;29;20045;-78
2021/06/21 05:39:45;;;;;;;5.63;2.80;;;;;;;31.44;36.56;100467.78;4875365;29;20053;-81
2021/06/21 05:42:16;;;;;;;4.95;3.20;;;;;;;31.53;35.98;100450.81;4869151;29;20082;-82
2021/06/21 05:44:42;;;;;;;6.25;3.45;;;;;;;31.38;35.72;100395.72;4850211;29;20324;-82
2021/06/21 05:47:08;;;;;;;6.40;3.55;;;;;;;31.98;34.99;100454.13;4866735;29;20079;-80
2021/06/21 05:49:34;;;;;;;5.57;4.18;;;;;;;31.97;35.38;100445.22;4854357;29;20060;-79
2021/06/21 05:52:00;;;;;;;7.20;3.90;;;;;;;32.43;35.32;100440.22;4850856;29;20112;-84
2021/06/21 05:54:26;;;;;;;5.68;3.42;;;;;;;33.15;34.16;100457.91;4847896;29;20045;-83
2021/06/21 05:56:53;;;;;;;6.90;4.30;;;;;;;34.67;32.78;100446.81;4848353;29;20057;-83
2021/06/21 05:59:19;;;;;;;7.60;3.10;;;;;;;36.24;30.74;100452.28;4864173;29;20046;-81
2021/06/21 06:01:45;;;;;;;7.63;2.85;;;;;;;37.85;29.09;100435.53;4849100;29;20051;-85
2021/06/21 06:04:11;;;;;;;4.68;2.78;;;;;;;39.47;26.98;100440.88;4864204;29;20049;-82
2021/06/21 06:06:38;;;;;;;6.28;2.70;;;;;;;40.40;25.33;100441.34;4843364;29;20132;-79
2021/06/21 06:09:04;;;;;;;4.50;2.88;;;;;;;40.99;24.54;100440.19;4846366;29;20047;-80
2021/06/21 06:11:30;;;;;;;3.38;2.72;;;;;;;41.67;23.42;100436.84;4831281;29;20045;-80
2021/06/21 06:13:58;;;;;;;5.65;2.53;;;;;;;41.74;22.43;100425.09;4851598;29;20138;-79
2021/06/21 06:16:24;;;;;;;5.45;2.70;;;;;;;41.99;22.09;100450.84;4857302;29;20125;-78
2021/06/21 06:18:50;;;;;;;6.60;2.70;;;;;;;42.10;22.16;100411.16;4866010;29;20045;-81
2021/06/21 06:21:17;;;;;;;5.15;2.78;;;;;;;42.86;21.05;100433.75;4828634;29;20049;-84
2021/06/21 06:23:43;;;;;;;5.63;2.88;;;;;;;43.27;20.93;100441.91;4848727;29;20113;-83
2021/06/21 06:26:09;;;;;;;7.10;2.90;;;;;;;43.95;20.54;100437.84;4865488;29;20045;-82
2021/06/21 06:28:38;;;;;;;5.32;2.40;;;;;;;44.53;19.59;100403.94;4839902;29;20042;-81
2021/06/21 06:31:06;;;;;;;3.23;2.70;;;;;;;45.38;19.14;100450.19;4843969;29;20534;-84
2021/06/21 06:33:32;;;;;;;4.53;2.92;;;;;;;45.44;18.57;100438.28;4830135;29;20378;-84
2021/06/21 06:35:58;;;;;;;8.38;2.90;;;;;;;45.49;18.23;100443.94;4848603;29;20053;-85
2021/06/21 06:38:24;;;;;;;6.68;3.30;;;;;;;45.91;18.21;100436.88;4836829;29;20060;-80
2021/06/21 06:40:54;;;;;;;7.55;3.30;;;;;;;45.67;17.91;100453.25;4849694;29;20101;-83
2021/06/21 06:43:20;;;;;;;;;;;;;;;46.72;18.22;100450.25;4847326;29;20045;-82
2021/06/21 06:45:50;;;;;;;5.95;3.28;;;;;;;47.54;17.03;100384.28;4832852;29;19920;-82
2021/06/21 06:48:28;;;;;;;5.45;3.00;;;;;;;48.60;15.74;100404.09;4832270;29;20049;-81
2021/06/21 06:50:54;;;;;;;5.88;2.45;;;;;;;48.83;15.30;100401.16;4817325;29;20522;-86
2021/06/21 06:53:27;;;;;;;4.90;3.15;;;;;;;49.28;14.89;100420.53;4829153;29;20051;-82
2021/06/21 06:58:37;;;;;;;2.90;2.55;;;;;;;50.37;13.88;100407.81;4819466;29;20832;-83
2021/06/21 07:01:03;;;;;;;7.28;3.08;;;;;;;50.41;13.69;100417.25;4829504;29;20056;-85
2021/06/21 07:03:30;;;;;;;3.60;2.70;;;;;;;50.25;13.12;100447.56;4847888;29;20045;-83
2021/06/21 07:05:56;;;;;;;4.75;2.40;;;;;;;50.41;12.73;100436.63;4833478;29;20073;-84
2021/06/21 07:08:22;;;;;;;4.43;2.10;;;;;;;50.42;12.84;100424.47;4851849;29;20410;-80
2021/06/21 07:10:48;;;;;;;3.90;2.38;;;;;;;51.14;11.93;100396.38;4848566;29;20066;-82
2021/06/21 07:13:14;;;;;;;15.07;2.83;;;;;;;51.58;12.83;100420.09;4844953;29;20429;-81
2021/06/21 07:15:40;;;;;;;13.20;2.72;;;;;;;51.38;11.76;100396.75;4813800;29;20117;-83
2021/06/21 07:18:14;;;;;;;3.97;2.70;;;;;;;51.04;11.90;100431.22;4843201;29;20156;-81
2021/06/21 07:20:42;;;;;;;3.67;2.40;;;;;;;51.41;11.89;100446.09;4849128;29;20049;-87
2021/06/21 07:23:08;;;;;;;6.22;2.38;;;;;;;52.28;11.19;100439.06;4831137;29;20049;-83
2021/06/21 07:25:34;;;;;;;24.73;3.90;;;;;;;52.93;11.18;100432.88;4846855;29;20335;-83
2021/06/21 07:28:03;;;;;;;4.38;2.83;;;;;;;52.84;10.71;100435.38;4848343;29;20148;-83
2021/06/21 07:30:31;;;;;;;8.25;2.63;;;;;;;52.74;10.85;100415.16;4865826;29;20101;-82
2021/06/21 07:32:57;;;;;;;2.67;2.40;;;;;;;52.75;10.88;100425.13;4866320;29;20076;-81
2021/06/21 07:35:26;;;;;;;11.30;2.70;;;;;;;53.46;10.56;100431.56;4847873;29;20545;-82
2021/06/21 07:37:52;;;;;;;3.78;2.30;;;;;;;52.82;10.56;100400.69;4868593;29;20041;-82
2021/06/21 07:40:18;;;;;;;7.57;3.55;;;;;;;52.76;10.27;100412.91;4834828;29;20045;-83
2021/06/21 07:42:44;;;;;;;5.43;2.53;;;;;;;52.05;11.11;100421.84;4845998;29;20755;-85
2021/06/21 07:45:11;;;;;;;4.57;2.22;;;;;;;50.86;11.01;100415.94;4845383;29;20053;-84
2021/06/21 07:47:37;;;;;;;3.92;2.15;;;;;;;50.17;11.55;100415.69;4814821;29;20120;-82
2021/06/21 07:50:06;;;;;;;2.92;2.10;;;;;;;50.33;11.70;100433.25;4824972;29;20100;-85
2021/06/21 07:52:33;;;;;;;2.50;2.10;;;;;;;50.61;11.68;100433.19;4847304;29;20068;-82
2021/06/21 07:54:59;;;;;;;4.85;2.53;;;;;;;50.43;11.58;100426.13;4815555;29;20200;-83
2021/06/21 07:57:34;;;;;;;3.83;2.42;;;;;;;49.80;11.81;100387.94;4859787;29;20546;-83
2021/06/21 08:00:00;;;;;;;4.75;2.35;;;;;;;49.79;12.02;100409.25;4829630;29;20367;-83
2021/06/21 08:02:26;;;;;;;3.13;2.25;;;;;;;50.45;11.79;100399.00;4861480;29;20041;-78
2021/06/21 08:04:52;;;;;;;2.88;1.98;;;;;;;51.09;11.00;100411.06;4860395;29;20041;-78
2021/06/21 08:07:18;;;;;;;2.97;1.85;;;;;;;52.06;10.22;100417.16;4845020;29;20153;-79
2021/06/21 08:09:44;;;;;;;6.10;2.28;;;;;;;53.09;10.11;100432.81;4860698;29;20522;-76
2021/06/21 08:12:10;;;;;;;2.60;2.40;;;;;;;52.34;9.88;100434.34;4844970;29;20052;-77
2021/06/21 08:14:39;;;;;;;4.88;2.35;;;;;;;51.46;10.90;100426.72;4861689;29;20474;-80
2021/06/21 08:17:14;;;;;;;5.20;2.85;;;;;;;51.22;11.07;100421.66;4836052;29;20041;-79
2021/06/21 08:19:40;;;;;;;4.32;2.22;;;;;;;50.41;11.36;100442.16;4845986;29;20167;-78
2021/06/21 08:22:06;;;;;;;2.40;2.20;;;;;;;50.47;11.46;100410.63;4845845;29;20037;-79
2021/06/21 08:24:32;;;;;;;3.83;2.10;;;;;;;51.52;10.81;100433.94;4862845;29;20185;-77
2021/06/21 08:27:07;;;;;;;3.90;2.47;;;;;;;52.63;10.83;100429.06;4859830;29;20094;-78
2021/06/21 08:29:33;;;;;;;2.95;2.22;;;;;;;51.83;10.83;100392.41;4846229;29;20053;-79
2021/06/21 08:31:59;;;;;;;2.75;2.10;;;;;;;52.58;10.04;100417.94;4859985;29;20080;-79
2021/06/21 08:34:24;;;;;;;2.38;2.05;;;;;;;52.72;10.14;100419.03;4863911;29;20078;-78
2021/06/21 08:36:50;;;;;;;2.60;2.40;;;;;;;52.87;10.25;100408.97;4860338;29;20038;-77
2021/06/21 08:39:16;;;;;;;4.80;2.50;;;;;;;52.44;10.11;100414.91;4836916;29;20053;-80
2021/06/21 08:41:42;;;;;;;4.45;2.45;;;;;;;52.47;10.62;100405.19;4860713;29;20037;-78
2021/06/21 08:44:08;;;;;;;3.42;2.88;;;;;;;52.28;10.62;100405.78;4843307;29;20421;-80
2021/06/21 08:46:34;;;;;;;2.30;2.10;;;;;;;51.57;10.67;100408.19;4859962;29;20041;-82
2021/06/21 08:49:03;;;;;;;5.10;2.50;;;;;;;51.13;11.34;100425.19;4859861;29;20042;-80
2021/06/21 08:51:29;;;;;;;3.00;2.22;;;;;;;50.44;11.44;100417.56;4843247;29;20068;-77
2021/06/21 08:53:55;;;;;;;2.53;2.33;;;;;;;51.54;11.07;100403.16;4858776;29;20034;-80
2021/06/21 08:56:22;;;;;;;2.55;2.38;;;;;;;52.18;10.98;100414.91;4844611;29;20108;-76
2021/06/21 08:58:47;;;;;;;3.45;2.25;;;;;;;51.37;11.42;100420.88;4860330;29;20041;-80
2021/06/21 09:01:13;;;;;;;2.22;2.03;;;;;;;50.82;10.86;100416.69;4844967;29;20407;-77
2021/06/21 09:03:46;;;;;;;2.17;1.98;;;;;;;49.27;11.40;100410.56;4863637;29;20084;-79
2021/06/21 09:06:23;;;;;;;4.35;2.30;;;;;;;48.16;11.81;100405.59;4830643;29;20080;-77
2021/06/21 09:08:53;;;;;;;4.00;2.13;;;;;;;46.63;13.15;100408.50;4862590;29;20048;-78
2021/06/21 09:11:19;;;;;;;2.08;1.88;;;;;;;47.86;13.10;100395.66;4860949;29;20060;-77
2021/06/21 09:13:46;;;;;;;3.05;2.40;;;;;;;49.30;12.32;100407.28;4835621;29;20053;-78
2021/06/21 09:16:18;;;;;;;4.43;2.15;;;;;;;50.01;11.47;100411.09;4866514;29;20125;-78
2021/06/21 09:18:44;;;;;;;3.15;2.10;;;;;;;49.45;11.36;100406.63;4849136;29;20132;-77
2021/06/21 09:21:30;;;;;;;3.83;2.22;;;;;;;47.31;12.50;100408.09;4854607;29;20057;-80
2021/06/21 09:23:58;;;;;;;3.17;1.92;;;;;;;47.67;13.22;100406.09;4827122;29;20050;-79
2021/06/21 09:26:29;;;;;;;4.22;2.13;;;;;;;49.09;12.08;100398.75;4847626;29;20049;-78
2021/06/21 09:28:56;;;;;;;2.20;1.98;;;;;;;49.01;11.46;100393.63;4867296;29;20486;-79
2021/06/21 09:31:24;;;;;;;5.90;1.98;;;;;;;47.67;12.30;100389.56;4863333;29;20073;-78
2021/06/21 09:33:49;;;;;;;3.15;1.70;;;;;;;46.64;12.16;100387.31;4831460;29;20417;-78
2021/06/21 09:36:35;;;;;;;4.50;1.80;;;;;;;45.73;13.26;100406.47;4847537;29;20037;-79
2021/06/21 09:39:25;;;;;;;2.88;1.90;;;;;;;45.46;13.40;100405.13;4846824;29;20045;-76
2021/06/21 09:42:13;;;;;;;3.63;2.10;;;;;;;45.43;13.83;100403.66;4862816;29;20056;-77
2021/06/21 09:44:45;;;;;;;6.95;2.50;;;;;;;45.96;13.34;100407.59;4870245;29;20057;-79
2021/06/21 09:47:28;;;;;;;3.92;2.30;;;;;;;46.84;13.13;100401.56;4832449;29;20046;-77
2021/06/21 09:50:01;;;;;;;5.25;2.40;;;;;;;47.03;12.98;100406.91;4835314;29;20074;-77
2021/06/21 09:52:49;;;;;;;4.35;2.20;;;;;;;46.50;13.80;100406.81;4849222;29;20065;-78
2021/06/21 09:55:20;;;;;;;9.00;2.50;;;;;;;47.08;13.89;100393.28;4832785;29;20045;-75
2021/06/21 09:57:48;;;;;;;2.75;2.20;;;;;;;47.87;13.29;100394.56;4867887;29;20100;-78
2021/06/21 10:00:16;;;;;;;5.03;2.25;;;;;;;48.47;12.98;100403.34;4864330;29;20025;-79
2021/06/21 10:02:43;;;;;;;4.13;2.13;;;;;;;47.79;13.25;100400.47;4878577;29;20042;-77
2021/06/21 10:05:22;;;;;;;4.18;2.17;;;;;;;45.93;13.86;100396.25;4847735;29;20070;-79
2021/06/21 10:07:48;;;;;;;6.95;2.00;;;;;;;45.49;14.28;100388.16;4859636;29;20645;-81
2021/06/21 10:10:18;;;;;;;4.38;2.10;;;;;;;46.62;14.02;100399.38;4839059;29;20065;-78
2021/06/21 10:12:44;;;;;;;3.38;1.73;;;;;;;46.68;13.85;100383.00;4870332;29;20145;-79
2021/06/21 10:15:12;;;;;;;3.00;1.95;;;;;;;46.53;13.51;100383.47;4862310;29;20038;-80
2021/06/21 10:17:38;;;;;;;4.13;2.00;;;;;;;46.52;14.00;100379.91;4874759;29;20156;-78
2021/06/21 10:20:06;;;;;;;5.30;1.77;;;;;;;46.24;13.47;100364.91;4869587;29;20053;-78
2021/06/21 10:22:33;;;;;;;2.42;2.22;;;;;;;46.03;14.13;100377.31;4857780;29;20061;-77
2021/06/21 10:24:59;;;;;;;3.83;1.83;;;;;;;45.98;14.30;100374.41;4845593;29;20144;-77
2021/06/21 10:27:30;;;;;;;2.45;2.00;;;;;;;44.78;14.70;100372.91;4853671;29;20045;-79
2021/06/21 10:29:57;;;;;;;2.97;2.17;;;;;;;43.25;16.44;100383.78;4845914;29;20125;-78
2021/06/21 10:32:27;;;;;;;2.03;1.67;;;;;;;41.90;17.41;100386.50;4862788;29;20060;-79
2021/06/21 10:34:54;;;;;;;1.98;1.75;;;;;;;40.42;17.84;100380.19;4845257;29;20196;-78
2021/06/21 10:37:22;;;;;;;5.18;1.83;;;;;;;38.85;19.73;100364.00;4876533;29;20504;-78
2021/06/21 10:39:50;;;;;;;4.35;1.70;;;;;;;38.34;20.21;100374.63;4859769;29;20181;-79
2021/06/21 10:42:19;;;;;;;4.07;1.90;;;;;;;38.22;20.39;100376.94;4845404;29;20049;-78
2021/06/21 10:44:56;;;;;;;4.72;2.25;;;;;;;38.08;20.55;100356.84;4828838;29;20473;-79
2021/06/21 10:47:31;;;;;;;3.53;1.88;;;;;;;37.69;20.75;100377.56;4860677;29;20052;-78
2021/06/21 10:50:17;;;;;;;5.18;2.00;;;;;;;36.61;22.00;100350.75;4837751;29;20037;-77
2021/06/21 10:52:45;;;;;;;9.07;1.80;;;;;;;36.05;22.45;100368.66;4847555;29;20531;-78
2021/06/21 10:55:38;;;;;;;2.22;1.83;;;;;;;35.34;23.40;100364.34;4845013;29;20041;-78
2021/06/21 10:58:23;;;;;;;3.47;1.92;;;;;;;34.80;23.67;100373.44;4845186;29;20078;-78
2021/06/21 11:00:54;;;;;;;3.53;1.80;;;;;;;34.27;24.26;100366.25;4845670;29;20071;-77
2021/06/21 11:03:26;;;;;;;4.30;1.98;;;;;;;33.93;25.00;100365.09;4828827;29;20088;-77
2021/06/21 11:05:54;;;;;;;3.17;1.60;;;;;;;33.75;25.09;100370.41;4865703;29;20865;-77
2021/06/21 11:08:25;;;;;;;2.92;1.80;;;;;;;33.27;26.02;100359.69;4848472;29;20534;-78
2021/06/21 11:11:29;;;;;;;4.55;1.95;;;;;;;32.78;26.50;100373.28;4871185;29;20041;-78
2021/06/21 11:14:05;;;;;;;2.40;1.55;;;;;;;32.35;26.92;100364.69;4802890;29;20084;-77
2021/06/21 11:16:31;;;;;;;4.70;1.70;;;;;;;32.39;26.66;100362.56;4788649;29;20070;-77
2021/06/21 11:19:25;;;;;;;4.28;1.70;;;;;;;32.62;26.79;100365.78;4789213;29;20089;-78
2021/06/21 11:22:03;;;;;;;4.22;2.60;;;;;;;32.77;26.62;100360.81;4805208;29;20051;-76
2021/06/21 11:24:46;;;;;;;4.05;1.90;;;;;;;32.98;26.69;100360.66;4758577;29;20086;-78
2021/06/21 11:27:21;;;;;;;2.15;1.92;;;;;;;33.07;26.67;100353.56;4774531;29;20067;-78
2021/06/21 11:29:58;;;;;;;3.95;1.70;;;;;;;33.02;26.74;100358.53;4781849;29;20043;-77
2021/06/21 11:32:26;;;;;;;4.03;1.83;;;;;;;32.82;26.45;100371.16;4772988;29;20051;-75